臺東航空站 - ATIS

METAR RCFN 191400Z 32003KT 260V020 9999 FEW012 BKN020 BKN035 24/23 Q1013 NOSIG RMK A2992=

站台狀態:Online
最後更新:2024-04-20 02:00:05